Mount Moriah, Missouri
Current Conditions -  °F | °C
As of 4:53 AM on Saturday 22 Nov 2014 (Local Time) from KLWD Reporting Station
Moderate Fog Moderate Fog  
Wind Chill: 36°   Ceiling: 200
Heat Index: 41°   Visibility: 0.25mi
Dew Point: 40°   Wind: 7mph
Humidity: 96%   Direction: 230°SW
Pressure: 29.94"   Gusts: NA
Location:  40.33°N, 93.8°W
Report Text: KLWD 221053Z AUTO 23006KT 1/4SM FG VV002 05/04 A2994 RMK AO2 SLP148 T00500044
Loading
Personal Weather Stations






























Interactive Weather Map New forecast layout! Learn more

10-Day Weather Forecast

Advertisements
Track Severe Weather on mobile